sensor_id;sensor_type;location;lat;lon;timestamp;P1;durP1;ratioP1;P2;durP2;ratioP2
74510;SDS011;62991;50.040;18.400;2024-01-06T00:01:44;23.17;;;9.43;;
74510;SDS011;62991;50.040;18.400;2024-01-06T00:04:45;25.80;;;10.48;;
74510;SDS011;62991;50.040;18.400;2024-01-06T00:07:46;30.90;;;10.82;;
74510;SDS011;62991;50.040;18.400;2024-01-06T00:10:46;28.42;;;10.32;;
74510;SDS011;62991;50.040;18.400;2024-01-06T00:13:47;28.58;;;9.80;;
74510;SDS011;62991;50.040;18.400;2024-01-06T00:16:48;28.65;;;11.23;;
74510;SDS011;62991;50.040;18.400;2024-01-06T00:19:48;27.42;;;10.25;;
74510;SDS011;62991;50.040;18.400;2024-01-06T00:22:52;27.52;;;11.27;;
74510;SDS011;62991;50.040;18.400;2024-01-06T00:25:52;33.88;;;10.32;;
74510;SDS011;62991;50.040;18.400;2024-01-06T00:28:53;27.70;;;9.98;;
74510;SDS011;62991;50.040;18.400;2024-01-06T00:31:54;28.27;;;11.18;;
74510;SDS011;62991;50.040;18.400;2024-01-06T00:34:55;24.83;;;10.60;;
74510;SDS011;62991;50.040;18.400;2024-01-06T00:37:55;24.48;;;9.80;;
74510;SDS011;62991;50.040;18.400;2024-01-06T00:40:56;25.38;;;10.27;;
74510;SDS011;62991;50.040;18.400;2024-01-06T00:43:57;29.88;;;10.57;;
74510;SDS011;62991;50.040;18.400;2024-01-06T00:46:57;28.27;;;10.85;;
74510;SDS011;62991;50.040;18.400;2024-01-06T00:49:58;44.63;;;16.13;;
74510;SDS011;62991;50.040;18.400;2024-01-06T00:52:59;35.22;;;12.07;;
74510;SDS011;62991;50.040;18.400;2024-01-06T00:55:59;34.83;;;11.52;;
74510;SDS011;62991;50.040;18.400;2024-01-06T00:59:00;32.70;;;11.77;;
74510;SDS011;62991;50.040;18.400;2024-01-06T01:02:01;31.05;;;10.40;;
74510;SDS011;62991;50.040;18.400;2024-01-06T01:05:01;36.85;;;13.35;;
74510;SDS011;62991;50.040;18.400;2024-01-06T01:08:02;38.20;;;14.30;;
74510;SDS011;62991;50.040;18.400;2024-01-06T01:11:03;48.47;;;15.65;;
74510;SDS011;62991;50.040;18.400;2024-01-06T01:14:04;48.15;;;14.40;;
74510;SDS011;62991;50.040;18.400;2024-01-06T01:17:04;51.08;;;16.33;;
74510;SDS011;62991;50.040;18.400;2024-01-06T01:20:05;43.22;;;14.25;;
74510;SDS011;62991;50.040;18.400;2024-01-06T01:23:06;43.63;;;14.85;;
74510;SDS011;62991;50.040;18.400;2024-01-06T01:26:07;39.85;;;13.75;;
74510;SDS011;62991;50.040;18.400;2024-01-06T01:29:08;28.98;;;10.93;;
74510;SDS011;62991;50.040;18.400;2024-01-06T01:32:08;37.58;;;11.85;;
74510;SDS011;62991;50.040;18.400;2024-01-06T01:35:09;26.63;;;10.60;;
74510;SDS011;62991;50.040;18.400;2024-01-06T01:38:10;20.05;;;8.27;;
74510;SDS011;62991;50.040;18.400;2024-01-06T01:41:10;29.23;;;10.05;;
74510;SDS011;62991;50.040;18.400;2024-01-06T01:44:11;33.42;;;12.00;;
74510;SDS011;62991;50.040;18.400;2024-01-06T01:47:12;33.60;;;10.93;;
74510;SDS011;62991;50.040;18.400;2024-01-06T01:50:18;35.90;;;12.32;;
74510;SDS011;62991;50.040;18.400;2024-01-06T01:53:20;41.72;;;13.32;;
74510;SDS011;62991;50.040;18.400;2024-01-06T01:56:21;42.90;;;14.10;;
74510;SDS011;62991;50.040;18.400;2024-01-06T01:59:23;49.90;;;15.32;;
74510;SDS011;62991;50.040;18.400;2024-01-06T02:02:24;38.78;;;14.57;;
74510;SDS011;62991;50.040;18.400;2024-01-06T02:05:25;48.60;;;17.83;;
74510;SDS011;62991;50.040;18.400;2024-01-06T02:08:25;45.10;;;16.90;;
74510;SDS011;62991;50.040;18.400;2024-01-06T02:11:26;46.22;;;18.00;;
74510;SDS011;62991;50.040;18.400;2024-01-06T02:14:27;49.80;;;18.00;;
74510;SDS011;62991;50.040;18.400;2024-01-06T02:17:28;42.55;;;14.77;;
74510;SDS011;62991;50.040;18.400;2024-01-06T02:20:29;39.65;;;15.88;;
74510;SDS011;62991;50.040;18.400;2024-01-06T02:23:31;38.42;;;13.68;;
74510;SDS011;62991;50.040;18.400;2024-01-06T02:26:34;34.42;;;13.95;;
74510;SDS011;62991;50.040;18.400;2024-01-06T02:29:34;37.28;;;14.35;;
74510;SDS011;62991;50.040;18.400;2024-01-06T02:32:35;40.85;;;15.07;;
74510;SDS011;62991;50.040;18.400;2024-01-06T02:35:36;43.95;;;15.25;;
74510;SDS011;62991;50.040;18.400;2024-01-06T02:38:37;47.63;;;17.08;;
74510;SDS011;62991;50.040;18.400;2024-01-06T02:41:37;40.08;;;13.57;;
74510;SDS011;62991;50.040;18.400;2024-01-06T02:44:38;38.72;;;13.07;;
74510;SDS011;62991;50.040;18.400;2024-01-06T02:47:39;39.88;;;11.68;;
74510;SDS011;62991;50.040;18.400;2024-01-06T02:50:39;28.08;;;9.60;;
74510;SDS011;62991;50.040;18.400;2024-01-06T02:53:40;26.88;;;10.73;;
74510;SDS011;62991;50.040;18.400;2024-01-06T02:56:40;23.35;;;9.48;;
74510;SDS011;62991;50.040;18.400;2024-01-06T02:59:41;27.73;;;9.65;;
74510;SDS011;62991;50.040;18.400;2024-01-06T03:02:42;23.80;;;8.30;;
74510;SDS011;62991;50.040;18.400;2024-01-06T03:05:42;24.27;;;8.77;;
74510;SDS011;62991;50.040;18.400;2024-01-06T03:08:43;20.20;;;8.57;;
74510;SDS011;62991;50.040;18.400;2024-01-06T03:11:44;24.73;;;9.00;;
74510;SDS011;62991;50.040;18.400;2024-01-06T03:14:45;20.83;;;8.27;;
74510;SDS011;62991;50.040;18.400;2024-01-06T03:17:46;26.20;;;10.50;;
74510;SDS011;62991;50.040;18.400;2024-01-06T03:20:46;21.15;;;9.18;;
74510;SDS011;62991;50.040;18.400;2024-01-06T03:23:50;17.58;;;7.97;;
74510;SDS011;62991;50.040;18.400;2024-01-06T03:26:51;22.90;;;7.70;;
74510;SDS011;62991;50.040;18.400;2024-01-06T03:29:51;23.40;;;8.65;;
74510;SDS011;62991;50.040;18.400;2024-01-06T03:32:52;25.10;;;9.77;;
74510;SDS011;62991;50.040;18.400;2024-01-06T03:35:53;26.77;;;9.30;;
74510;SDS011;62991;50.040;18.400;2024-01-06T03:38:53;26.17;;;10.63;;
74510;SDS011;62991;50.040;18.400;2024-01-06T03:41:54;25.85;;;9.95;;
74510;SDS011;62991;50.040;18.400;2024-01-06T03:44:54;23.65;;;9.02;;
74510;SDS011;62991;50.040;18.400;2024-01-06T03:47:55;25.25;;;9.23;;
74510;SDS011;62991;50.040;18.400;2024-01-06T03:50:56;29.30;;;11.02;;
74510;SDS011;62991;50.040;18.400;2024-01-06T03:53:56;28.42;;;10.35;;
74510;SDS011;62991;50.040;18.400;2024-01-06T03:56:57;32.95;;;10.48;;
74510;SDS011;62991;50.040;18.400;2024-01-06T03:59:58;24.63;;;9.75;;
74510;SDS011;62991;50.040;18.400;2024-01-06T04:02:58;32.33;;;10.65;;
74510;SDS011;62991;50.040;18.400;2024-01-06T04:05:59;28.25;;;11.48;;
74510;SDS011;62991;50.040;18.400;2024-01-06T04:09:00;25.92;;;10.18;;
74510;SDS011;62991;50.040;18.400;2024-01-06T04:12:01;26.95;;;9.68;;
74510;SDS011;62991;50.040;18.400;2024-01-06T04:15:02;20.48;;;9.32;;
74510;SDS011;62991;50.040;18.400;2024-01-06T04:18:04;28.40;;;11.40;;
74510;SDS011;62991;50.040;18.400;2024-01-06T04:21:05;26.90;;;10.65;;
74510;SDS011;62991;50.040;18.400;2024-01-06T04:24:06;24.70;;;9.18;;
74510;SDS011;62991;50.040;18.400;2024-01-06T04:27:06;24.80;;;8.70;;
74510;SDS011;62991;50.040;18.400;2024-01-06T04:30:07;27.05;;;9.13;;
74510;SDS011;62991;50.040;18.400;2024-01-06T04:33:08;27.45;;;9.35;;
74510;SDS011;62991;50.040;18.400;2024-01-06T04:36:09;29.08;;;12.50;;
74510;SDS011;62991;50.040;18.400;2024-01-06T04:39:09;39.10;;;15.27;;
74510;SDS011;62991;50.040;18.400;2024-01-06T04:42:12;36.05;;;15.18;;
74510;SDS011;62991;50.040;18.400;2024-01-06T04:45:13;36.67;;;13.32;;
74510;SDS011;62991;50.040;18.400;2024-01-06T04:48:14;39.50;;;14.88;;
74510;SDS011;62991;50.040;18.400;2024-01-06T04:51:14;31.38;;;12.45;;
74510;SDS011;62991;50.040;18.400;2024-01-06T04:54:15;32.65;;;12.65;;
74510;SDS011;62991;50.040;18.400;2024-01-06T04:57:16;39.50;;;15.45;;
74510;SDS011;62991;50.040;18.400;2024-01-06T05:00:17;32.92;;;13.23;;
74510;SDS011;62991;50.040;18.400;2024-01-06T05:03:18;29.67;;;11.88;;
74510;SDS011;62991;50.040;18.400;2024-01-06T05:06:18;27.48;;;11.40;;
74510;SDS011;62991;50.040;18.400;2024-01-06T05:09:19;31.40;;;12.68;;
74510;SDS011;62991;50.040;18.400;2024-01-06T05:12:19;34.67;;;12.38;;
74510;SDS011;62991;50.040;18.400;2024-01-06T05:15:20;31.23;;;12.25;;
74510;SDS011;62991;50.040;18.400;2024-01-06T05:18:21;35.85;;;12.90;;
74510;SDS011;62991;50.040;18.400;2024-01-06T05:21:21;36.80;;;13.60;;
74510;SDS011;62991;50.040;18.400;2024-01-06T05:24:22;31.98;;;11.38;;
74510;SDS011;62991;50.040;18.400;2024-01-06T05:27:23;32.00;;;10.68;;
74510;SDS011;62991;50.040;18.400;2024-01-06T05:30:23;39.38;;;11.60;;
74510;SDS011;62991;50.040;18.400;2024-01-06T05:33:24;29.23;;;10.82;;
74510;SDS011;62991;50.040;18.400;2024-01-06T05:36:25;30.85;;;10.50;;
74510;SDS011;62991;50.040;18.400;2024-01-06T05:39:25;25.98;;;10.35;;
74510;SDS011;62991;50.040;18.400;2024-01-06T05:42:26;32.67;;;12.52;;
74510;SDS011;62991;50.040;18.400;2024-01-06T05:45:27;27.23;;;11.07;;
74510;SDS011;62991;50.040;18.400;2024-01-06T05:48:27;29.17;;;11.73;;
74510;SDS011;62991;50.040;18.400;2024-01-06T05:51:28;35.40;;;11.50;;
74510;SDS011;62991;50.040;18.400;2024-01-06T05:54:29;32.20;;;10.68;;
74510;SDS011;62991;50.040;18.400;2024-01-06T05:57:30;33.72;;;10.93;;
74510;SDS011;62991;50.040;18.400;2024-01-06T06:00:31;34.60;;;11.75;;
74510;SDS011;62991;50.040;18.400;2024-01-06T06:03:31;32.38;;;10.50;;
74510;SDS011;62991;50.040;18.400;2024-01-06T06:06:32;26.63;;;10.27;;
74510;SDS011;62991;50.040;18.400;2024-01-06T06:09:33;29.95;;;11.90;;
74510;SDS011;62991;50.040;18.400;2024-01-06T06:12:34;27.30;;;11.20;;
74510;SDS011;62991;50.040;18.400;2024-01-06T06:15:35;35.63;;;12.70;;
74510;SDS011;62991;50.040;18.400;2024-01-06T06:18:36;26.27;;;10.77;;
74510;SDS011;62991;50.040;18.400;2024-01-06T06:21:36;29.90;;;11.05;;
74510;SDS011;62991;50.040;18.400;2024-01-06T06:24:37;48.97;;;20.33;;
74510;SDS011;62991;50.040;18.400;2024-01-06T06:27:38;59.42;;;20.83;;
74510;SDS011;62991;50.040;18.400;2024-01-06T06:30:39;57.00;;;22.35;;
74510;SDS011;62991;50.040;18.400;2024-01-06T06:33:40;65.80;;;21.38;;
74510;SDS011;62991;50.040;18.400;2024-01-06T06:36:40;46.00;;;16.45;;
74510;SDS011;62991;50.040;18.400;2024-01-06T06:39:41;45.10;;;18.73;;
74510;SDS011;62991;50.040;18.400;2024-01-06T06:42:44;54.67;;;19.00;;
74510;SDS011;62991;50.040;18.400;2024-01-06T06:45:45;48.10;;;20.58;;
74510;SDS011;62991;50.040;18.400;2024-01-06T06:48:46;53.63;;;17.48;;
74510;SDS011;62991;50.040;18.400;2024-01-06T06:51:46;42.83;;;14.50;;
74510;SDS011;62991;50.040;18.400;2024-01-06T06:54:48;41.90;;;15.85;;
74510;SDS011;62991;50.040;18.400;2024-01-06T06:57:49;51.33;;;16.73;;
74510;SDS011;62991;50.040;18.400;2024-01-06T07:00:49;50.65;;;17.80;;
74510;SDS011;62991;50.040;18.400;2024-01-06T07:03:50;42.00;;;16.50;;
74510;SDS011;62991;50.040;18.400;2024-01-06T07:06:51;37.72;;;14.05;;
74510;SDS011;62991;50.040;18.400;2024-01-06T07:09:51;45.13;;;15.32;;
74510;SDS011;62991;50.040;18.400;2024-01-06T07:12:52;43.67;;;15.00;;
74510;SDS011;62991;50.040;18.400;2024-01-06T07:15:53;50.28;;;16.95;;
74510;SDS011;62991;50.040;18.400;2024-01-06T07:18:54;41.60;;;15.02;;
74510;SDS011;62991;50.040;18.400;2024-01-06T07:21:54;44.03;;;17.92;;
74510;SDS011;62991;50.040;18.400;2024-01-06T07:24:55;43.60;;;15.70;;
74510;SDS011;62991;50.040;18.400;2024-01-06T07:27:56;46.95;;;16.23;;
74510;SDS011;62991;50.040;18.400;2024-01-06T07:30:56;39.67;;;15.10;;
74510;SDS011;62991;50.040;18.400;2024-01-06T07:33:57;39.42;;;15.90;;
74510;SDS011;62991;50.040;18.400;2024-01-06T07:36:57;39.45;;;14.18;;
74510;SDS011;62991;50.040;18.400;2024-01-06T07:39:58;41.47;;;14.88;;
74510;SDS011;62991;50.040;18.400;2024-01-06T07:42:59;50.47;;;16.95;;
74510;SDS011;62991;50.040;18.400;2024-01-06T07:45:59;36.33;;;13.88;;
74510;SDS011;62991;50.040;18.400;2024-01-06T07:49:00;39.35;;;14.80;;
74510;SDS011;62991;50.040;18.400;2024-01-06T07:52:01;32.90;;;13.73;;
74510;SDS011;62991;50.040;18.400;2024-01-06T07:55:02;37.58;;;14.32;;
74510;SDS011;62991;50.040;18.400;2024-01-06T07:58:03;36.58;;;16.17;;
74510;SDS011;62991;50.040;18.400;2024-01-06T08:01:04;36.97;;;15.20;;
74510;SDS011;62991;50.040;18.400;2024-01-06T08:04:04;42.53;;;14.68;;
74510;SDS011;62991;50.040;18.400;2024-01-06T08:07:05;47.50;;;17.40;;
74510;SDS011;62991;50.040;18.400;2024-01-06T08:10:06;59.80;;;21.33;;
74510;SDS011;62991;50.040;18.400;2024-01-06T08:13:08;63.15;;;20.48;;
74510;SDS011;62991;50.040;18.400;2024-01-06T08:16:09;64.85;;;23.63;;
74510;SDS011;62991;50.040;18.400;2024-01-06T08:19:10;59.72;;;22.02;;
74510;SDS011;62991;50.040;18.400;2024-01-06T08:22:10;69.68;;;23.35;;
74510;SDS011;62991;50.040;18.400;2024-01-06T08:25:11;76.20;;;25.75;;
74510;SDS011;62991;50.040;18.400;2024-01-06T08:28:13;90.70;;;26.92;;
74510;SDS011;62991;50.040;18.400;2024-01-06T08:31:18;76.43;;;30.48;;
74510;SDS011;62991;50.040;18.400;2024-01-06T08:34:19;84.53;;;29.77;;
74510;SDS011;62991;50.040;18.400;2024-01-06T08:37:20;83.93;;;32.35;;
74510;SDS011;62991;50.040;18.400;2024-01-06T08:40:20;83.22;;;32.47;;
74510;SDS011;62991;50.040;18.400;2024-01-06T08:43:21;91.20;;;34.67;;
74510;SDS011;62991;50.040;18.400;2024-01-06T08:46:21;82.32;;;33.08;;
74510;SDS011;62991;50.040;18.400;2024-01-06T08:49:22;91.00;;;33.22;;
74510;SDS011;62991;50.040;18.400;2024-01-06T08:52:23;109.75;;;39.70;;
74510;SDS011;62991;50.040;18.400;2024-01-06T08:55:24;119.03;;;43.45;;
74510;SDS011;62991;50.040;18.400;2024-01-06T08:58:25;114.55;;;43.40;;
74510;SDS011;62991;50.040;18.400;2024-01-06T09:01:25;124.03;;;47.30;;
74510;SDS011;62991;50.040;18.400;2024-01-06T09:04:26;135.73;;;48.55;;
74510;SDS011;62991;50.040;18.400;2024-01-06T09:07:27;126.45;;;47.28;;
74510;SDS011;62991;50.040;18.400;2024-01-06T09:10:27;120.75;;;43.53;;
74510;SDS011;62991;50.040;18.400;2024-01-06T09:13:29;98.93;;;36.38;;
74510;SDS011;62991;50.040;18.400;2024-01-06T09:16:29;71.57;;;30.60;;
74510;SDS011;62991;50.040;18.400;2024-01-06T09:19:30;82.38;;;34.33;;
74510;SDS011;62991;50.040;18.400;2024-01-06T09:22:31;90.57;;;36.20;;
74510;SDS011;62991;50.040;18.400;2024-01-06T09:25:32;85.72;;;34.53;;
74510;SDS011;62991;50.040;18.400;2024-01-06T09:28:33;86.53;;;35.20;;
74510;SDS011;62991;50.040;18.400;2024-01-06T09:31:33;86.18;;;35.03;;
74510;SDS011;62991;50.040;18.400;2024-01-06T09:34:34;80.50;;;31.20;;
74510;SDS011;62991;50.040;18.400;2024-01-06T09:37:35;91.22;;;33.33;;
74510;SDS011;62991;50.040;18.400;2024-01-06T09:40:35;91.43;;;37.05;;
74510;SDS011;62991;50.040;18.400;2024-01-06T09:43:43;136.30;;;47.38;;
74510;SDS011;62991;50.040;18.400;2024-01-06T09:46:44;162.52;;;55.60;;
74510;SDS011;62991;50.040;18.400;2024-01-06T09:49:49;183.13;;;66.25;;
74510;SDS011;62991;50.040;18.400;2024-01-06T09:52:50;142.75;;;52.30;;
74510;SDS011;62991;50.040;18.400;2024-01-06T09:55:55;109.93;;;41.08;;
74510;SDS011;62991;50.040;18.400;2024-01-06T09:58:56;92.55;;;32.45;;
74510;SDS011;62991;50.040;18.400;2024-01-06T10:01:57;90.90;;;31.15;;
74510;SDS011;62991;50.040;18.400;2024-01-06T10:04:58;71.70;;;28.00;;
74510;SDS011;62991;50.040;18.400;2024-01-06T10:07:58;62.17;;;24.92;;
74510;SDS011;62991;50.040;18.400;2024-01-06T10:10:59;63.30;;;26.10;;
74510;SDS011;62991;50.040;18.400;2024-01-06T10:14:01;62.53;;;22.83;;
74510;SDS011;62991;50.040;18.400;2024-01-06T10:17:05;50.83;;;23.45;;
74510;SDS011;62991;50.040;18.400;2024-01-06T10:20:08;48.60;;;19.67;;
74510;SDS011;62991;50.040;18.400;2024-01-06T10:23:10;50.67;;;22.50;;
74510;SDS011;62991;50.040;18.400;2024-01-06T10:26:13;46.28;;;18.45;;
74510;SDS011;62991;50.040;18.400;2024-01-06T10:29:14;54.83;;;19.85;;
74510;SDS011;62991;50.040;18.400;2024-01-06T10:32:15;49.00;;;20.45;;
74510;SDS011;62991;50.040;18.400;2024-01-06T10:35:17;52.33;;;20.52;;
74510;SDS011;62991;50.040;18.400;2024-01-06T10:38:18;47.55;;;18.33;;
74510;SDS011;62991;50.040;18.400;2024-01-06T10:41:19;48.35;;;17.55;;
74510;SDS011;62991;50.040;18.400;2024-01-06T10:44:21;37.75;;;14.73;;
74510;SDS011;62991;50.040;18.400;2024-01-06T10:47:24;31.92;;;12.88;;
74510;SDS011;62991;50.040;18.400;2024-01-06T10:50:26;43.88;;;15.25;;
74510;SDS011;62991;50.040;18.400;2024-01-06T10:53:28;32.05;;;12.88;;
74510;SDS011;62991;50.040;18.400;2024-01-06T10:56:30;32.42;;;13.15;;
74510;SDS011;62991;50.040;18.400;2024-01-06T10:59:36;32.00;;;13.43;;
74510;SDS011;62991;50.040;18.400;2024-01-06T11:02:39;33.65;;;15.40;;
74510;SDS011;62991;50.040;18.400;2024-01-06T11:05:42;36.10;;;14.98;;
74510;SDS011;62991;50.040;18.400;2024-01-06T11:11:49;33.90;;;14.27;;
74510;SDS011;62991;50.040;18.400;2024-01-06T11:14:51;33.10;;;13.48;;
74510;SDS011;62991;50.040;18.400;2024-01-06T11:17:53;43.55;;;18.13;;
74510;SDS011;62991;50.040;18.400;2024-01-06T11:24:15;51.63;;;16.45;;
74510;SDS011;62991;50.040;18.400;2024-01-06T11:27:25;45.30;;;17.20;;
74510;SDS011;62991;50.040;18.400;2024-01-06T11:30:28;42.38;;;16.30;;
74510;SDS011;62991;50.040;18.400;2024-01-06T11:33:29;46.53;;;17.15;;
74510;SDS011;62991;50.040;18.400;2024-01-06T11:36:30;46.72;;;20.65;;
74510;SDS011;62991;50.040;18.400;2024-01-06T11:39:38;41.83;;;17.63;;
74510;SDS011;62991;50.040;18.400;2024-01-06T11:42:41;47.17;;;18.88;;
74510;SDS011;62991;50.040;18.400;2024-01-06T11:45:42;46.67;;;18.42;;
74510;SDS011;62991;50.040;18.400;2024-01-06T11:48:44;47.30;;;19.52;;
74510;SDS011;62991;50.040;18.400;2024-01-06T11:51:50;50.92;;;18.75;;
74510;SDS011;62991;50.040;18.400;2024-01-06T11:54:54;57.13;;;18.58;;
74510;SDS011;62991;50.040;18.400;2024-01-06T11:57:55;48.38;;;19.40;;
74510;SDS011;62991;50.040;18.400;2024-01-06T12:00:57;52.35;;;19.40;;
74510;SDS011;62991;50.040;18.400;2024-01-06T12:03:58;60.15;;;20.02;;
74510;SDS011;62991;50.040;18.400;2024-01-06T12:07:06;53.10;;;20.38;;
74510;SDS011;62991;50.040;18.400;2024-01-06T12:10:10;54.05;;;18.25;;
74510;SDS011;62991;50.040;18.400;2024-01-06T12:13:11;47.55;;;19.75;;
74510;SDS011;62991;50.040;18.400;2024-01-06T12:16:12;55.53;;;20.05;;
74510;SDS011;62991;50.040;18.400;2024-01-06T12:19:12;54.10;;;20.90;;
74510;SDS011;62991;50.040;18.400;2024-01-06T12:22:14;56.15;;;21.83;;
74510;SDS011;62991;50.040;18.400;2024-01-06T12:25:15;51.13;;;18.75;;
74510;SDS011;62991;50.040;18.400;2024-01-06T12:28:16;57.13;;;19.77;;
74510;SDS011;62991;50.040;18.400;2024-01-06T12:31:16;58.25;;;19.35;;
74510;SDS011;62991;50.040;18.400;2024-01-06T12:34:19;49.47;;;18.45;;
74510;SDS011;62991;50.040;18.400;2024-01-06T12:37:20;51.42;;;17.73;;
74510;SDS011;62991;50.040;18.400;2024-01-06T12:40:23;55.50;;;18.75;;
74510;SDS011;62991;50.040;18.400;2024-01-06T12:43:23;47.10;;;18.80;;
74510;SDS011;62991;50.040;18.400;2024-01-06T12:46:24;62.38;;;22.63;;
74510;SDS011;62991;50.040;18.400;2024-01-06T12:49:25;43.80;;;20.50;;
74510;SDS011;62991;50.040;18.400;2024-01-06T12:52:25;47.53;;;19.30;;
74510;SDS011;62991;50.040;18.400;2024-01-06T12:55:26;59.40;;;21.02;;
74510;SDS011;62991;50.040;18.400;2024-01-06T12:58:27;63.35;;;22.75;;
74510;SDS011;62991;50.040;18.400;2024-01-06T13:01:27;66.55;;;24.88;;
74510;SDS011;62991;50.040;18.400;2024-01-06T13:04:29;50.53;;;19.38;;
74510;SDS011;62991;50.040;18.400;2024-01-06T13:07:30;53.70;;;20.73;;
74510;SDS011;62991;50.040;18.400;2024-01-06T13:10:31;46.72;;;18.77;;
74510;SDS011;62991;50.040;18.400;2024-01-06T13:13:32;54.08;;;19.45;;
74510;SDS011;62991;50.040;18.400;2024-01-06T13:16:32;53.80;;;19.05;;
74510;SDS011;62991;50.040;18.400;2024-01-06T13:19:33;46.53;;;18.65;;
74510;SDS011;62991;50.040;18.400;2024-01-06T13:22:34;51.15;;;19.23;;
74510;SDS011;62991;50.040;18.400;2024-01-06T13:25:34;63.22;;;21.35;;
74510;SDS011;62991;50.040;18.400;2024-01-06T13:28:35;49.50;;;18.40;;
74510;SDS011;62991;50.040;18.400;2024-01-06T13:31:36;64.60;;;23.10;;
74510;SDS011;62991;50.040;18.400;2024-01-06T13:34:37;55.70;;;20.60;;
74510;SDS011;62991;50.040;18.400;2024-01-06T13:37:38;62.40;;;21.08;;
74510;SDS011;62991;50.040;18.400;2024-01-06T13:40:39;52.88;;;19.67;;
74510;SDS011;62991;50.040;18.400;2024-01-06T13:43:39;69.63;;;24.17;;
74510;SDS011;62991;50.040;18.400;2024-01-06T13:46:40;55.08;;;19.67;;
74510;SDS011;62991;50.040;18.400;2024-01-06T13:49:44;57.95;;;18.17;;
74510;SDS011;62991;50.040;18.400;2024-01-06T13:52:45;56.22;;;20.15;;
74510;SDS011;62991;50.040;18.400;2024-01-06T13:55:46;51.83;;;17.60;;
74510;SDS011;62991;50.040;18.400;2024-01-06T13:58:46;52.67;;;17.58;;
74510;SDS011;62991;50.040;18.400;2024-01-06T14:01:47;39.85;;;15.93;;
74510;SDS011;62991;50.040;18.400;2024-01-06T14:04:48;39.40;;;16.23;;
74510;SDS011;62991;50.040;18.400;2024-01-06T14:07:49;42.53;;;15.70;;
74510;SDS011;62991;50.040;18.400;2024-01-06T14:10:50;43.95;;;14.98;;
74510;SDS011;62991;50.040;18.400;2024-01-06T14:13:51;42.03;;;15.77;;
74510;SDS011;62991;50.040;18.400;2024-01-06T14:19:56;34.63;;;14.43;;
74510;SDS011;62991;50.040;18.400;2024-01-06T14:22:57;40.25;;;15.98;;
74510;SDS011;62991;50.040;18.400;2024-01-06T14:25:58;42.28;;;15.00;;
74510;SDS011;62991;50.040;18.400;2024-01-06T14:28:59;42.42;;;17.45;;
74510;SDS011;62991;50.040;18.400;2024-01-06T14:32:00;36.28;;;13.30;;
74510;SDS011;62991;50.040;18.400;2024-01-06T14:35:01;43.72;;;15.88;;
74510;SDS011;62991;50.040;18.400;2024-01-06T14:38:01;31.65;;;14.38;;
74510;SDS011;62991;50.040;18.400;2024-01-06T14:41:02;45.45;;;14.82;;
74510;SDS011;62991;50.040;18.400;2024-01-06T14:44:03;36.40;;;12.02;;
74510;SDS011;62991;50.040;18.400;2024-01-06T14:47:04;32.53;;;13.13;;
74510;SDS011;62991;50.040;18.400;2024-01-06T14:50:05;27.75;;;11.70;;
74510;SDS011;62991;50.040;18.400;2024-01-06T14:53:06;33.25;;;12.45;;
74510;SDS011;62991;50.040;18.400;2024-01-06T14:56:07;28.17;;;11.90;;
74510;SDS011;62991;50.040;18.400;2024-01-06T14:59:08;34.08;;;12.00;;
74510;SDS011;62991;50.040;18.400;2024-01-06T15:02:08;30.08;;;12.85;;
74510;SDS011;62991;50.040;18.400;2024-01-06T15:05:09;37.38;;;13.10;;
74510;SDS011;62991;50.040;18.400;2024-01-06T15:08:10;33.78;;;13.73;;
74510;SDS011;62991;50.040;18.400;2024-01-06T15:11:10;29.83;;;13.23;;
74510;SDS011;62991;50.040;18.400;2024-01-06T15:14:11;38.03;;;13.55;;
74510;SDS011;62991;50.040;18.400;2024-01-06T15:17:12;28.95;;;13.20;;
74510;SDS011;62991;50.040;18.400;2024-01-06T15:20:13;35.22;;;14.32;;
74510;SDS011;62991;50.040;18.400;2024-01-06T15:23:14;30.20;;;12.88;;
74510;SDS011;62991;50.040;18.400;2024-01-06T15:26:21;31.75;;;13.57;;
74510;SDS011;62991;50.040;18.400;2024-01-06T15:29:23;35.40;;;12.30;;
74510;SDS011;62991;50.040;18.400;2024-01-06T15:32:24;39.60;;;15.63;;
74510;SDS011;62991;50.040;18.400;2024-01-06T15:35:24;34.92;;;14.73;;
74510;SDS011;62991;50.040;18.400;2024-01-06T15:38:25;33.90;;;15.02;;
74510;SDS011;62991;50.040;18.400;2024-01-06T15:41:27;31.65;;;14.75;;
74510;SDS011;62991;50.040;18.400;2024-01-06T15:44:28;34.10;;;14.25;;
74510;SDS011;62991;50.040;18.400;2024-01-06T15:47:29;40.30;;;14.48;;
74510;SDS011;62991;50.040;18.400;2024-01-06T15:50:29;28.70;;;11.32;;
74510;SDS011;62991;50.040;18.400;2024-01-06T15:53:30;32.40;;;12.07;;
74510;SDS011;62991;50.040;18.400;2024-01-06T15:56:31;25.50;;;11.25;;
74510;SDS011;62991;50.040;18.400;2024-01-06T15:59:32;32.60;;;13.15;;
74510;SDS011;62991;50.040;18.400;2024-01-06T16:02:33;28.38;;;12.20;;
74510;SDS011;62991;50.040;18.400;2024-01-06T16:05:34;22.27;;;9.25;;
74510;SDS011;62991;50.040;18.400;2024-01-06T16:08:35;28.50;;;11.40;;
74510;SDS011;62991;50.040;18.400;2024-01-06T16:11:39;28.55;;;10.15;;
74510;SDS011;62991;50.040;18.400;2024-01-06T16:14:40;29.27;;;11.73;;
74510;SDS011;62991;50.040;18.400;2024-01-06T16:17:40;32.47;;;11.38;;
74510;SDS011;62991;50.040;18.400;2024-01-06T16:20:41;28.58;;;10.80;;
74510;SDS011;62991;50.040;18.400;2024-01-06T16:23:42;23.23;;;9.68;;
74510;SDS011;62991;50.040;18.400;2024-01-06T16:26:45;32.10;;;10.43;;
74510;SDS011;62991;50.040;18.400;2024-01-06T16:29:46;21.80;;;10.70;;
74510;SDS011;62991;50.040;18.400;2024-01-06T16:32:47;34.20;;;11.10;;
74510;SDS011;62991;50.040;18.400;2024-01-06T16:35:48;24.30;;;9.57;;
74510;SDS011;62991;50.040;18.400;2024-01-06T16:38:48;26.60;;;10.82;;
74510;SDS011;62991;50.040;18.400;2024-01-06T16:41:49;26.67;;;10.70;;
74510;SDS011;62991;50.040;18.400;2024-01-06T16:44:50;32.83;;;11.48;;
74510;SDS011;62991;50.040;18.400;2024-01-06T16:47:51;26.23;;;11.02;;
74510;SDS011;62991;50.040;18.400;2024-01-06T16:50:52;28.58;;;10.85;;
74510;SDS011;62991;50.040;18.400;2024-01-06T16:53:52;30.23;;;11.13;;
74510;SDS011;62991;50.040;18.400;2024-01-06T16:56:53;27.77;;;10.68;;
74510;SDS011;62991;50.040;18.400;2024-01-06T16:59:54;22.85;;;9.73;;
74510;SDS011;62991;50.040;18.400;2024-01-06T17:02:55;30.73;;;11.82;;
74510;SDS011;62991;50.040;18.400;2024-01-06T17:05:55;26.95;;;10.75;;
74510;SDS011;62991;50.040;18.400;2024-01-06T17:08:56;23.75;;;8.68;;
74510;SDS011;62991;50.040;18.400;2024-01-06T17:11:57;20.55;;;8.73;;
74510;SDS011;62991;50.040;18.400;2024-01-06T17:14:57;28.45;;;9.63;;
74510;SDS011;62991;50.040;18.400;2024-01-06T17:17:58;40.78;;;10.48;;
74510;SDS011;62991;50.040;18.400;2024-01-06T17:21:00;18.98;;;7.80;;
74510;SDS011;62991;50.040;18.400;2024-01-06T17:24:00;23.33;;;9.85;;
74510;SDS011;62991;50.040;18.400;2024-01-06T17:27:01;23.90;;;8.85;;
74510;SDS011;62991;50.040;18.400;2024-01-06T17:30:02;24.45;;;9.07;;
74510;SDS011;62991;50.040;18.400;2024-01-06T17:33:03;25.02;;;8.80;;
74510;SDS011;62991;50.040;18.400;2024-01-06T17:36:04;19.92;;;8.27;;